Time;durP1;ratioP1;P1;durP2;ratioP2;P2;SDS_P1;SDS_P2;PMS_P1;PMS_P2;Temp;Humidity;BMP_temperature;BMP_pressure;BME280_temperature;BME280_humidity;BME280_pressure;Samples;Min_cycle;Max_cycle;Signal;HPM_P1;HPM_P2
2022/11/30 05:42:44;;;;;;;;;44.75;34.00;;;;;;;;4356618;32;51401;-55
2022/11/30 05:45:28;;;;;;;;;46.25;35.75;;;;;;;;5097627;27;51093;-50
2022/11/30 05:48:13;;;;;;;;;47.75;36.00;;;;;;;;5116546;27;51335;-51
2022/11/30 05:51:08;;;;;;;;;54.00;38.75;;;;;;;;5117739;27;51152;-53
2022/11/30 05:53:52;;;;;;;;;56.50;42.25;;;;;;;;5117876;27;51031;-50
2022/11/30 05:56:37;;;;;;;;;53.50;40.00;;;;;;;;5117603;27;50964;-49
2022/11/30 05:59:22;;;;;;;;;51.25;42.00;;;;;;;;5114001;27;51137;-53
2022/11/30 06:02:06;;;;;;;;;55.75;43.00;;;;;;;;5101656;27;51333;-54
2022/11/30 06:04:51;;;;;;;;;54.50;41.50;;;;;;;;5117744;27;51149;-53
2022/11/30 06:07:35;;;;;;;;;52.00;41.00;;;;;;;;5096987;27;51173;-52
2022/11/30 06:10:20;;;;;;;;;50.50;41.25;;;;;;;;5097217;27;51166;-52
2022/11/30 06:13:08;;;;;;;;;56.00;43.25;;;;;;;;5109702;27;51231;-49
2022/11/30 06:15:53;;;;;;;;;57.75;44.00;;;;;;;;5096665;27;51051;-51
2022/11/30 06:18:37;;;;;;;;;56.75;43.75;;;;;;;;5097113;27;51104;-50
2022/11/30 06:21:22;;;;;;;;;64.25;47.25;;;;;;;;5112378;27;51226;-51
2022/11/30 06:24:07;;;;;;;;;54.25;41.00;;;;;;;;5096891;27;51089;-50
2022/11/30 06:37:21;;;;;;;;;60.00;47.00;;;;;;;;4296093;32;51061;-54
2022/11/30 06:40:06;;;;;;;;;58.25;47.50;;;;;;;;5056988;28;51143;-51
2022/11/30 06:42:50;;;;;;;;;60.00;47.50;;;;;;;;5056615;28;51443;-53
2022/11/30 06:45:34;;;;;;;;;66.00;51.25;;;;;;;;5056353;28;51146;-48
2022/11/30 06:48:21;;;;;;;;;67.00;54.75;;;;;;;;5054351;28;51216;-54
2022/11/30 06:51:07;;;;;;;;;63.75;52.00;;;;;;;;5056529;28;51148;-52
2022/11/30 06:53:51;;;;;;;;;62.00;49.00;;;;;;;;5056695;28;51194;-52
2022/11/30 06:56:35;;;;;;;;;66.00;49.50;;;;;;;;5056003;28;51126;-51
2022/11/30 06:59:20;;;;;;;;;68.75;51.75;;;;;;;;5056083;28;51210;-48
2022/11/30 07:02:04;;;;;;;;;65.50;51.00;;;;;;;;5056260;28;51109;-48
2022/11/30 07:04:49;;;;;;;;;35.50;27.75;;;;;;;;5056550;28;51124;-45
2022/11/30 07:07:34;;;;;;;;;62.00;50.00;;;;;;;;5056094;28;51152;-51
2022/11/30 07:10:18;;;;;;;;;62.50;48.75;;;;;;;;5056131;28;51134;-47
2022/11/30 07:13:02;;;;;;;;;59.00;47.25;;;;;;;;5056207;28;51651;-47
2022/11/30 07:15:47;;;;;;;;;68.00;54.00;;;;;;;;5056035;28;51113;-48
2022/11/30 07:18:31;;;;;;;;;68.00;54.50;;;;;;;;5056341;28;51386;-47
2022/11/30 07:21:15;;;;;;;;;65.25;50.00;;;;;;;;5052577;28;51372;-48
2022/11/30 07:27:03;;;;;;;;;59.50;47.50;;;;;;;;5055724;28;51053;-47
2022/11/30 07:29:50;;;;;;;;;55.50;42.00;;;;;;;;5056190;28;51133;-47
2022/11/30 07:32:34;;;;;;;;;54.25;42.00;;;;;;;;5055563;28;51623;-50
2022/11/30 07:35:18;;;;;;;;;54.50;43.50;;;;;;;;5055570;28;51161;-50
2022/11/30 07:38:03;;;;;;;;;56.75;43.25;;;;;;;;5043542;28;51129;-47
2022/11/30 07:40:47;;;;;;;;;53.25;41.50;;;;;;;;5041996;28;51022;-51
2022/11/30 07:43:31;;;;;;;;;50.75;39.50;;;;;;;;5042439;28;51030;-49
2022/11/30 07:46:16;;;;;;;;;45.25;38.00;;;;;;;;5042311;28;51448;-50
2022/11/30 07:49:08;;;;;;;;;43.25;35.25;;;;;;;;5042144;28;51578;-46
2022/11/30 07:51:53;;;;;;;;;46.50;36.00;;;;;;;;5041492;28;51120;-50
2022/11/30 07:54:37;;;;;;;;;44.75;38.00;;;;;;;;5034007;28;51167;-49
2022/11/30 07:57:21;;;;;;;;;42.75;33.50;;;;;;;;5041045;28;51328;-47
2022/11/30 08:00:08;;;;;;;;;44.25;35.00;;;;;;;;5054848;28;51172;-50
2022/11/30 08:02:52;;;;;;;;;42.00;33.00;;;;;;;;5041424;28;51585;-48
2022/11/30 08:05:36;;;;;;;;;42.00;34.00;;;;;;;;5041308;28;51105;-50
2022/11/30 08:08:21;;;;;;;;;40.50;33.50;;;;;;;;5041312;28;51130;-49
2022/11/30 08:11:06;;;;;;;;;36.00;29.00;;;;;;;;5041048;28;51540;-50
2022/11/30 08:13:51;;;;;;;;;39.50;31.00;;;;;;;;5041362;28;51093;-51
2022/11/30 08:16:37;;;;;;;;;40.25;32.50;;;;;;;;5040630;28;51101;-49
2022/11/30 08:19:21;;;;;;;;;46.50;38.00;;;;;;;;5040969;28;51119;-49
2022/11/30 08:22:05;;;;;;;;;30.75;27.50;;;;;;;;5041280;28;51443;-49
2022/11/30 08:24:50;;;;;;;;;37.00;30.75;;;;;;;;5040658;28;51221;-51
2022/11/30 08:27:34;;;;;;;;;33.25;28.25;;;;;;;;5040882;28;52825;-51
2022/11/30 08:30:18;;;;;;;;;30.25;27.75;;;;;;;;5041017;28;51106;-48
2022/11/30 08:33:03;;;;;;;;;32.75;28.75;;;;;;;;5041251;28;51161;-50
2022/11/30 08:35:47;;;;;;;;;33.75;28.25;;;;;;;;5040642;28;51552;-50
2022/11/30 08:38:31;;;;;;;;;32.75;25.00;;;;;;;;5040591;28;51758;-50
2022/11/30 08:41:20;;;;;;;;;31.50;28.00;;;;;;;;5040894;28;51055;-49
2022/11/30 08:44:05;;;;;;;;;31.75;27.00;;;;;;;;5041025;28;51090;-51
2022/11/30 08:46:49;;;;;;;;;36.50;28.00;;;;;;;;5040413;28;51073;-51
2022/11/30 08:49:33;;;;;;;;;30.75;28.00;;;;;;;;5039423;28;51061;-51
2022/11/30 08:52:18;;;;;;;;;19.75;14.75;;;;;;;;5040732;28;51139;-49
2022/11/30 08:55:03;;;;;;;;;28.00;24.00;;;;;;;;5040226;28;51022;-48
2022/11/30 08:57:47;;;;;;;;;27.00;24.00;;;;;;;;5040783;28;51118;-50
2022/11/30 09:00:31;;;;;;;;;21.50;18.50;;;;;;;;5039901;28;51444;-49
2022/11/30 09:03:16;;;;;;;;;19.25;18.50;;;;;;;;5040069;28;51500;-53
2022/11/30 09:06:08;;;;;;;;;19.75;13.75;;;;;;;;5040237;28;51081;-49
2022/11/30 09:08:54;;;;;;;;;16.25;15.00;;;;;;;;5039798;28;51046;-51
2022/11/30 09:11:38;;;;;;;;;17.00;13.75;;;;;;;;5039472;28;51049;-52
2022/11/30 09:14:22;;;;;;;;;11.50;10.25;;;;;;;;5040258;28;51121;-50
2022/11/30 09:17:07;;;;;;;;;11.25;10.75;;;;;;;;5040313;28;51352;-49
2022/11/30 09:19:51;;;;;;;;;14.25;10.00;;;;;;;;5039564;28;51352;-49
2022/11/30 09:22:36;;;;;;;;;14.50;13.25;;;;;;;;5040316;28;51156;-54
2022/11/30 09:25:20;;;;;;;;;15.00;12.50;;;;;;;;5039793;28;51169;-53
2022/11/30 09:28:04;;;;;;;;;16.00;13.75;;;;;;;;5038830;28;51367;-49
2022/11/30 09:30:49;;;;;;;;;12.00;12.00;;;;;;;;5036367;28;51362;-51
2022/11/30 09:33:33;;;;;;;;;13.75;10.50;;;;;;;;5039683;28;51186;-48
2022/11/30 09:36:19;;;;;;;;;15.00;10.25;;;;;;;;5039749;28;51555;-51
2022/11/30 09:39:03;;;;;;;;;13.00;12.50;;;;;;;;5039803;28;51061;-48
2022/11/30 09:42:05;;;;;;;;;11.50;10.75;;;;;;;;5040046;28;51505;-51
2022/11/30 09:44:58;;;;;;;;;14.50;13.75;;;;;;;;5038953;28;51275;-50
2022/11/30 09:48:01;;;;;;;;;12.75;11.75;;;;;;;;5040116;28;51400;-49
2022/11/30 09:50:46;;;;;;;;;12.00;11.75;;;;;;;;5039216;28;50944;-49
2022/11/30 09:53:37;;;;;;;;;9.75;6.75;;;;;;;;5039892;28;51063;-53
2022/11/30 09:56:29;;;;;;;;;15.25;13.75;;;;;;;;5039344;28;51070;-51
2022/11/30 09:59:16;;;;;;;;;15.00;13.75;;;;;;;;5039563;28;51158;-51
2022/11/30 10:02:08;;;;;;;;;15.25;13.25;;;;;;;;5039256;28;51164;-49
2022/11/30 10:04:52;;;;;;;;;12.75;12.00;;;;;;;;5038925;28;51071;-53
2022/11/30 10:07:55;;;;;;;;;12.25;12.25;;;;;;;;5039325;28;51047;-50
2022/11/30 10:10:43;;;;;;;;;15.25;14.50;;;;;;;;5039614;28;51084;-51
2022/11/30 10:13:48;;;;;;;;;15.00;12.00;;;;;;;;5039668;28;51173;-52
2022/11/30 10:16:35;;;;;;;;;13.25;10.25;;;;;;;;5038763;28;51243;-49
2022/11/30 10:19:19;;;;;;;;;12.25;9.50;;;;;;;;5039531;28;51316;-47
2022/11/30 10:22:18;;;;;;;;;17.25;14.00;;;;;;;;5038906;28;51417;-54
2022/11/30 10:25:11;;;;;;;;;18.50;15.50;;;;;;;;5039005;28;51027;-50
2022/11/30 10:28:13;;;;;;;;;13.50;12.25;;;;;;;;5039319;28;51519;-49
2022/11/30 10:30:59;;;;;;;;;14.25;12.50;;;;;;;;5038562;28;51251;-47
2022/11/30 10:33:53;;;;;;;;;14.50;11.00;;;;;;;;5038961;28;51469;-52
2022/11/30 10:36:40;;;;;;;;;16.25;13.00;;;;;;;;5038270;28;51102;-50
2022/11/30 10:39:32;;;;;;;;;15.25;12.00;;;;;;;;5039455;28;51161;-49
2022/11/30 10:42:31;;;;;;;;;15.75;12.00;;;;;;;;5039044;28;51480;-50
2022/11/30 10:45:22;;;;;;;;;12.75;12.00;;;;;;;;5038976;28;51868;-50
2022/11/30 10:48:14;;;;;;;;;13.75;11.25;;;;;;;;5038869;28;51093;-49
2022/11/30 10:51:00;;;;;;;;;13.00;12.00;;;;;;;;5038936;28;51109;-51
2022/11/30 10:53:44;;;;;;;;;14.25;13.00;;;;;;;;5038681;28;51335;-49
2022/11/30 10:56:28;;;;;;;;;13.75;12.00;;;;;;;;5038555;28;51111;-49
2022/11/30 10:59:18;;;;;;;;;15.00;13.75;;;;;;;;5038938;28;51475;-52
2022/11/30 11:02:22;;;;;;;;;14.75;13.00;;;;;;;;5038780;28;51108;-49
2022/11/30 11:05:09;;;;;;;;;11.75;11.25;;;;;;;;5039286;28;51114;-51
2022/11/30 11:07:53;;;;;;;;;15.50;12.25;;;;;;;;5038390;28;51155;-52
2022/11/30 11:10:46;;;;;;;;;15.75;14.00;;;;;;;;5038562;28;51568;-48
2022/11/30 11:13:38;;;;;;;;;20.75;13.75;;;;;;;;5042241;28;51166;-49
2022/11/30 11:16:22;;;;;;;;;15.00;15.00;;;;;;;;5042654;28;51027;-50
2022/11/30 11:19:19;;;;;;;;;16.25;14.50;;;;;;;;5042500;28;51609;-50
2022/11/30 11:22:13;;;;;;;;;14.00;13.25;;;;;;;;5042593;28;51043;-49
2022/11/30 11:25:18;;;;;;;;;13.00;12.25;;;;;;;;5041699;28;51136;-50
2022/11/30 11:28:13;;;;;;;;;15.50;14.50;;;;;;;;5042123;28;51103;-49
2022/11/30 11:30:58;;;;;;;;;15.75;13.00;;;;;;;;5041530;28;51042;-52
2022/11/30 11:33:51;;;;;;;;;14.00;12.00;;;;;;;;5040428;28;51079;-49
2022/11/30 11:36:35;;;;;;;;;15.00;10.50;;;;;;;;5041549;28;51140;-50
2022/11/30 11:39:27;;;;;;;;;13.50;12.00;;;;;;;;5041945;28;51053;-48
2022/11/30 11:42:18;;;;;;;;;15.50;12.25;;;;;;;;5041503;28;51015;-51
2022/11/30 11:45:02;;;;;;;;;11.75;11.00;;;;;;;;5042056;28;51346;-49
2022/11/30 11:47:56;;;;;;;;;14.00;11.25;;;;;;;;5041996;28;50952;-48
2022/11/30 11:50:55;;;;;;;;;14.00;11.00;;;;;;;;5040940;28;50969;-49
2022/11/30 11:53:40;;;;;;;;;13.25;11.00;;;;;;;;5041581;28;51117;-50
2022/11/30 11:56:33;;;;;;;;;17.50;13.00;;;;;;;;5040552;28;51041;-48
2022/11/30 11:59:21;;;;;;;;;12.50;12.50;;;;;;;;5042000;28;51195;-48
2022/11/30 12:02:08;;;;;;;;;14.25;13.00;;;;;;;;5041845;28;51433;-47
2022/11/30 12:05:00;;;;;;;;;16.00;16.00;;;;;;;;5041907;28;51439;-48
2022/11/30 12:07:52;;;;;;;;;19.75;14.00;;;;;;;;5042186;28;51172;-50
2022/11/30 12:10:40;;;;;;;;;15.50;14.50;;;;;;;;5040852;28;51108;-46
2022/11/30 12:13:36;;;;;;;;;14.75;12.50;;;;;;;;5041882;28;51146;-48
2022/11/30 12:16:24;;;;;;;;;11.75;10.25;;;;;;;;5041222;28;50987;-48
2022/11/30 12:19:12;;;;;;;;;13.75;12.25;;;;;;;;5038834;28;51251;-46
2022/11/30 12:21:56;;;;;;;;;14.50;13.50;;;;;;;;5039761;28;51081;-47
2022/11/30 12:25:16;;;;;;;;;19.25;12.75;;;;;;;;5041211;28;51199;-51
2022/11/30 12:28:13;;;;;;;;;12.25;11.00;;;;;;;;4998486;28;51102;-50
2022/11/30 12:31:13;;;;;;;;;11.75;11.75;;;;;;;;5037742;28;51213;-49
2022/11/30 12:33:58;;;;;;;;;14.75;12.50;;;;;;;;5041363;28;51057;-53
2022/11/30 12:36:45;;;;;;;;;14.75;12.75;;;;;;;;5040345;28;51357;-52
2022/11/30 12:39:50;;;;;;;;;15.00;14.25;;;;;;;;5040826;28;51151;-47
2022/11/30 12:42:39;;;;;;;;;16.00;12.00;;;;;;;;5040983;28;51178;-52
2022/11/30 12:45:30;;;;;;;;;11.25;10.00;;;;;;;;5040378;28;51191;-48
2022/11/30 12:48:22;;;;;;;;;14.75;13.00;;;;;;;;5040364;28;51022;-52
2022/11/30 12:51:20;;;;;;;;;14.75;12.50;;;;;;;;5040366;28;51079;-49
2022/11/30 12:54:18;;;;;;;;;14.25;11.50;;;;;;;;5040687;28;51787;-49
2022/11/30 12:57:11;;;;;;;;;12.50;11.00;;;;;;;;5040366;28;51175;-46
2022/11/30 13:00:25;;;;;;;;;13.50;9.75;;;;;;;;5041037;28;51181;-48
2022/11/30 13:03:35;;;;;;;;;13.00;11.50;;;;;;;;5032031;28;51127;-52
2022/11/30 13:06:23;;;;;;;;;12.75;9.50;;;;;;;;5040225;28;51117;-47
2022/11/30 13:09:15;;;;;;;;;14.00;13.00;;;;;;;;5038531;28;51149;-49
2022/11/30 13:12:06;;;;;;;;;13.75;13.75;;;;;;;;5040004;28;51163;-50
2022/11/30 13:14:57;;;;;;;;;16.00;12.00;;;;;;;;5040640;28;51166;-45
2022/11/30 13:17:42;;;;;;;;;13.50;12.00;;;;;;;;5040000;28;51085;-48
2022/11/30 13:20:27;;;;;;;;;11.75;11.00;;;;;;;;5039567;28;51112;-46
2022/11/30 13:23:20;;;;;;;;;17.50;11.50;;;;;;;;5039908;28;51145;-50
2022/11/30 13:26:10;;;;;;;;;15.25;13.25;;;;;;;;5040255;28;51144;-47
2022/11/30 13:29:13;;;;;;;;;12.00;11.00;;;;;;;;5039182;28;51248;-47
2022/11/30 13:32:04;;;;;;;;;11.00;9.25;;;;;;;;5039837;28;51049;-50
2022/11/30 13:34:49;;;;;;;;;10.75;10.75;;;;;;;;5039701;28;51144;-48
2022/11/30 13:37:33;;;;;;;;;12.25;11.75;;;;;;;;5039996;28;51073;-50
2022/11/30 13:40:23;;;;;;;;;16.25;12.75;;;;;;;;5039347;28;50999;-50
2022/11/30 13:43:20;;;;;;;;;14.25;12.75;;;;;;;;5040039;28;51182;-49
2022/11/30 13:46:14;;;;;;;;;13.50;11.75;;;;;;;;5039592;28;51405;-48
2022/11/30 13:49:17;;;;;;;;;15.50;13.00;;;;;;;;5038329;28;51200;-51
2022/11/30 13:52:02;;;;;;;;;14.75;10.50;;;;;;;;5039978;28;50944;-52
2022/11/30 13:54:48;;;;;;;;;12.25;12.00;;;;;;;;5039864;28;51013;-50
2022/11/30 13:57:33;;;;;;;;;10.50;10.25;;;;;;;;5037314;28;51125;-51
2022/11/30 14:00:29;;;;;;;;;12.50;11.75;;;;;;;;5037092;28;51433;-48
2022/11/30 14:03:19;;;;;;;;;15.25;12.25;;;;;;;;5037036;28;51034;-50
2022/11/30 14:06:04;;;;;;;;;17.75;16.00;;;;;;;;5038502;28;51342;-49
2022/11/30 14:08:49;;;;;;;;;17.75;14.00;;;;;;;;5037952;28;51224;-48
2022/11/30 14:11:38;;;;;;;;;16.25;12.75;;;;;;;;5050326;28;51441;-47
2022/11/30 14:14:51;;;;;;;;;18.25;12.00;;;;;;;;5036956;28;51199;-49
2022/11/30 14:17:36;;;;;;;;;15.00;12.50;;;;;;;;5033966;28;51063;-48
2022/11/30 14:20:24;;;;;;;;;19.75;15.25;;;;;;;;5037155;28;51172;-48
2022/11/30 14:23:12;;;;;;;;;17.50;15.00;;;;;;;;5039102;28;51090;-47
2022/11/30 14:26:16;;;;;;;;;18.50;14.00;;;;;;;;5038360;28;51093;-48
2022/11/30 14:29:10;;;;;;;;;14.75;14.00;;;;;;;;5037870;28;51123;-49
2022/11/30 14:32:02;;;;;;;;;22.25;20.75;;;;;;;;5038097;28;51141;-47
2022/11/30 14:34:51;;;;;;;;;27.75;23.75;;;;;;;;5037460;28;51175;-48
2022/11/30 14:37:40;;;;;;;;;46.00;36.25;;;;;;;;5035954;28;51578;-47
2022/11/30 14:40:26;;;;;;;;;40.00;32.00;;;;;;;;5036578;28;51165;-49
2022/11/30 14:43:14;;;;;;;;;19.50;18.25;;;;;;;;5035598;28;51187;-47
2022/11/30 14:46:03;;;;;;;;;43.25;32.75;;;;;;;;5036487;28;51026;-47
2022/11/30 14:49:02;;;;;;;;;40.25;32.75;;;;;;;;5040492;28;51240;-50
2022/11/30 14:51:56;;;;;;;;;24.25;23.75;;;;;;;;5040550;28;51215;-49
2022/11/30 14:54:54;;;;;;;;;35.75;31.75;;;;;;;;5041928;28;51228;-50
2022/11/30 14:57:44;;;;;;;;;19.25;15.00;;;;;;;;5042231;28;51323;-48
2022/11/30 15:00:30;;;;;;;;;20.50;18.75;;;;;;;;5039644;28;51159;-47
2022/11/30 15:03:28;;;;;;;;;16.25;12.00;;;;;;;;5038269;28;51175;-47
2022/11/30 15:06:14;;;;;;;;;34.75;28.75;;;;;;;;5040951;28;51203;-50
2022/11/30 15:08:59;;;;;;;;;22.50;19.50;;;;;;;;5042758;28;51078;-49
2022/11/30 15:11:45;;;;;;;;;13.00;10.25;;;;;;;;5040690;28;51618;-48
2022/11/30 15:14:30;;;;;;;;;18.25;14.75;;;;;;;;5041348;28;51186;-49
2022/11/30 15:17:15;;;;;;;;;22.00;21.25;;;;;;;;5041807;28;51374;-48
2022/11/30 15:19:59;;;;;;;;;16.75;16.25;;;;;;;;5042422;28;51194;-51
2022/11/30 15:22:44;;;;;;;;;22.00;19.00;;;;;;;;5041841;28;51159;-50
2022/11/30 15:25:33;;;;;;;;;17.75;15.50;;;;;;;;5036893;28;51169;-46
2022/11/30 15:28:21;;;;;;;;;14.75;12.50;;;;;;;;5037425;28;51439;-47
2022/11/30 15:31:08;;;;;;;;;22.00;15.50;;;;;;;;5039758;28;51122;-48
2022/11/30 15:33:52;;;;;;;;;16.75;12.50;;;;;;;;5041441;28;51252;-48
2022/11/30 15:36:38;;;;;;;;;19.75;15.00;;;;;;;;5040657;28;51081;-48
2022/11/30 15:39:23;;;;;;;;;18.25;15.25;;;;;;;;5039376;28;51049;-48
2022/11/30 15:42:17;;;;;;;;;23.50;16.00;;;;;;;;5040907;28;51575;-50
2022/11/30 15:45:20;;;;;;;;;19.00;15.00;;;;;;;;5040525;28;51261;-49
2022/11/30 15:48:24;;;;;;;;;17.75;16.75;;;;;;;;5039877;28;51422;-48
2022/11/30 15:51:21;;;;;;;;;18.00;13.00;;;;;;;;5040028;28;51127;-48
2022/11/30 15:54:06;;;;;;;;;17.50;14.00;;;;;;;;5037689;28;51244;-47
2022/11/30 15:56:54;;;;;;;;;15.25;14.25;;;;;;;;5043950;28;51120;-51
2022/11/30 15:59:40;;;;;;;;;24.75;17.00;;;;;;;;5041130;28;51103;-50
2022/11/30 16:02:31;;;;;;;;;18.50;16.50;;;;;;;;5053940;28;51481;-51
2022/11/30 16:05:16;;;;;;;;;20.50;17.50;;;;;;;;5041364;28;51140;-48
2022/11/30 16:08:05;;;;;;;;;17.25;13.75;;;;;;;;5038634;28;51636;-46
2022/11/30 16:10:53;;;;;;;;;19.25;15.00;;;;;;;;5036809;28;51417;-47
2022/11/30 16:13:39;;;;;;;;;20.00;15.50;;;;;;;;5040787;28;51165;-49
2022/11/30 16:16:27;;;;;;;;;20.50;15.75;;;;;;;;5040883;28;51134;-50
2022/11/30 16:19:11;;;;;;;;;20.25;17.50;;;;;;;;5040866;28;51510;-48
2022/11/30 16:21:56;;;;;;;;;19.00;16.50;;;;;;;;5040224;28;51148;-47
2022/11/30 16:24:41;;;;;;;;;29.75;22.50;;;;;;;;5054451;28;51122;-48
2022/11/30 16:27:25;;;;;;;;;21.75;17.50;;;;;;;;5040528;28;51058;-48
2022/11/30 16:30:14;;;;;;;;;20.25;19.25;;;;;;;;5039188;28;51133;-49
2022/11/30 16:32:58;;;;;;;;;25.75;22.25;;;;;;;;5040198;28;51120;-49
2022/11/30 16:35:54;;;;;;;;;23.75;19.25;;;;;;;;5040604;28;51197;-49
2022/11/30 16:38:39;;;;;;;;;20.50;17.50;;;;;;;;5053663;28;51497;-48
2022/11/30 16:41:24;;;;;;;;;15.25;15.00;;;;;;;;5037062;28;51203;-48
2022/11/30 16:44:13;;;;;;;;;18.50;18.00;;;;;;;;5039810;28;51074;-47
2022/11/30 16:46:57;;;;;;;;;26.75;22.25;;;;;;;;5040079;28;51065;-47
2022/11/30 16:49:41;;;;;;;;;24.00;19.00;;;;;;;;5040664;28;51097;-48
2022/11/30 16:52:25;;;;;;;;;28.50;21.75;;;;;;;;5038695;28;51174;-48
2022/11/30 16:55:14;;;;;;;;;23.75;21.25;;;;;;;;5040401;28;51126;-50
2022/11/30 16:57:59;;;;;;;;;21.75;18.50;;;;;;;;5039795;28;51119;-50
2022/11/30 17:00:44;;;;;;;;;24.25;22.00;;;;;;;;5035042;28;51206;-50
2022/11/30 17:03:30;;;;;;;;;20.00;18.00;;;;;;;;5038947;28;51579;-47
2022/11/30 17:06:19;;;;;;;;;23.25;21.75;;;;;;;;5037962;28;51105;-48
2022/11/30 17:09:03;;;;;;;;;24.00;22.50;;;;;;;;5038981;28;51422;-48
2022/11/30 17:11:51;;;;;;;;;23.25;22.25;;;;;;;;5039613;28;51205;-49
2022/11/30 17:14:35;;;;;;;;;25.75;22.50;;;;;;;;5040048;28;51128;-50
2022/11/30 17:17:20;;;;;;;;;20.75;18.75;;;;;;;;5039308;28;51220;-49
2022/11/30 17:20:04;;;;;;;;;28.75;20.25;;;;;;;;5039847;28;51152;-50
2022/11/30 17:22:49;;;;;;;;;25.25;19.25;;;;;;;;5038281;28;51163;-50
2022/11/30 17:25:33;;;;;;;;;21.50;20.00;;;;;;;;5053565;28;51018;-46
2022/11/30 17:28:17;;;;;;;;;22.00;17.25;;;;;;;;5039522;28;51492;-49
2022/11/30 17:31:02;;;;;;;;;23.00;19.25;;;;;;;;5037609;28;51090;-49
2022/11/30 17:33:46;;;;;;;;;26.25;18.75;;;;;;;;5039561;28;51065;-52
2022/11/30 17:36:30;;;;;;;;;25.75;19.75;;;;;;;;5036052;28;51213;-46
2022/11/30 17:39:15;;;;;;;;;23.00;18.75;;;;;;;;5037474;28;51238;-50
2022/11/30 17:41:59;;;;;;;;;20.75;17.50;;;;;;;;5032089;28;51230;-51
2022/11/30 17:44:45;;;;;;;;;19.50;15.25;;;;;;;;5033813;28;51219;-47
2022/11/30 17:47:28;;;;;;;;;21.50;17.25;;;;;;;;5038589;28;51105;-50
2022/11/30 17:50:14;;;;;;;;;23.75;20.50;;;;;;;;5039199;28;51173;-47
2022/11/30 17:52:58;;;;;;;;;23.00;22.25;;;;;;;;5039453;28;51066;-48
2022/11/30 17:55:43;;;;;;;;;22.75;19.50;;;;;;;;5040027;28;51168;-51
2022/11/30 17:58:27;;;;;;;;;17.25;16.50;;;;;;;;5034455;28;51188;-47
2022/11/30 18:01:19;;;;;;;;;20.50;18.00;;;;;;;;5030427;28;51131;-50
2022/11/30 18:04:03;;;;;;;;;25.25;18.75;;;;;;;;5034251;28;51038;-48
2022/11/30 18:06:47;;;;;;;;;21.75;18.50;;;;;;;;5039195;28;51118;-47
2022/11/30 18:09:32;;;;;;;;;22.75;19.50;;;;;;;;5039250;28;51106;-49
2022/11/30 18:12:16;;;;;;;;;25.50;20.75;;;;;;;;5039022;28;51132;-51
2022/11/30 18:15:01;;;;;;;;;21.00;20.00;;;;;;;;5039183;28;51087;-49
2022/11/30 18:17:45;;;;;;;;;22.00;20.25;;;;;;;;5039137;28;51095;-49
2022/11/30 18:20:30;;;;;;;;;25.00;20.75;;;;;;;;5039158;28;51066;-48
2022/11/30 18:23:14;;;;;;;;;23.75;19.50;;;;;;;;5039080;28;51502;-49
2022/11/30 18:25:58;;;;;;;;;21.00;18.00;;;;;;;;5038758;28;51102;-49
2022/11/30 18:28:43;;;;;;;;;20.25;20.00;;;;;;;;5039970;28;51161;-50
2022/11/30 18:31:29;;;;;;;;;27.50;22.75;;;;;;;;5038819;28;51493;-50
2022/11/30 18:34:13;;;;;;;;;26.00;21.25;;;;;;;;5039141;28;51126;-50
2022/11/30 18:36:58;;;;;;;;;28.75;24.50;;;;;;;;5038338;28;51195;-49
2022/11/30 18:39:42;;;;;;;;;24.25;21.25;;;;;;;;5039235;28;51129;-48
2022/11/30 18:42:26;;;;;;;;;22.25;19.25;;;;;;;;5039063;28;51631;-50
2022/11/30 18:45:11;;;;;;;;;23.00;18.75;;;;;;;;5038784;28;51124;-50
2022/11/30 18:47:55;;;;;;;;;21.25;19.25;;;;;;;;5038943;28;51182;-48
2022/11/30 18:50:39;;;;;;;;;23.00;21.75;;;;;;;;5039211;28;51442;-49
2022/11/30 18:53:24;;;;;;;;;19.75;18.50;;;;;;;;5039562;28;50466;-49
2022/11/30 18:56:08;;;;;;;;;22.50;16.75;;;;;;;;5038165;28;51173;-47
2022/11/30 18:58:54;;;;;;;;;28.75;22.25;;;;;;;;5038997;28;51609;-48
2022/11/30 19:01:38;;;;;;;;;20.50;19.00;;;;;;;;5038959;28;51141;-49
2022/11/30 19:04:24;;;;;;;;;19.75;18.75;;;;;;;;5039110;28;51022;-47
2022/11/30 19:07:09;;;;;;;;;15.00;14.75;;;;;;;;5038316;28;51054;-49
2022/11/30 19:09:53;;;;;;;;;22.75;14.25;;;;;;;;5038779;28;51164;-48
2022/11/30 19:12:37;;;;;;;;;20.00;17.50;;;;;;;;5038965;28;51392;-48
2022/11/30 19:15:22;;;;;;;;;20.00;17.25;;;;;;;;5038067;28;51113;-50
2022/11/30 19:18:08;;;;;;;;;20.00;16.75;;;;;;;;5031651;28;51058;-47
2022/11/30 19:20:53;;;;;;;;;20.00;17.00;;;;;;;;5038516;28;51420;-48
2022/11/30 19:23:37;;;;;;;;;17.50;14.75;;;;;;;;5038844;28;51172;-47
2022/11/30 19:26:22;;;;;;;;;17.75;15.25;;;;;;;;5038000;28;51046;-49
2022/11/30 19:29:06;;;;;;;;;16.75;15.50;;;;;;;;5038943;28;51177;-48
2022/11/30 19:31:51;;;;;;;;;22.25;15.75;;;;;;;;5038629;28;51539;-50
2022/11/30 19:34:35;;;;;;;;;14.50;13.75;;;;;;;;5055668;28;51114;-48
2022/11/30 19:37:19;;;;;;;;;26.00;22.50;;;;;;;;5041712;28;51125;-49
2022/11/30 19:40:05;;;;;;;;;17.25;17.25;;;;;;;;5041632;28;51039;-50
2022/11/30 19:42:49;;;;;;;;;18.00;18.00;;;;;;;;5042632;28;51227;-51
2022/11/30 19:45:34;;;;;;;;;15.75;14.75;;;;;;;;5041774;28;51318;-51
2022/11/30 19:48:18;;;;;;;;;18.25;13.25;;;;;;;;5041382;28;51161;-50
2022/11/30 19:51:04;;;;;;;;;19.75;15.25;;;;;;;;5041740;28;51102;-50
2022/11/30 19:53:54;;;;;;;;;19.75;14.25;;;;;;;;5042253;28;51257;-48
2022/11/30 19:56:40;;;;;;;;;23.75;19.00;;;;;;;;5041260;28;51132;-48
2022/11/30 19:59:25;;;;;;;;;24.00;15.75;;;;;;;;5041540;28;51181;-51
2022/11/30 20:02:10;;;;;;;;;43.50;33.00;;;;;;;;5041809;28;51530;-48
2022/11/30 20:04:55;;;;;;;;;58.25;41.50;;;;;;;;5041382;28;51116;-48
2022/11/30 20:07:39;;;;;;;;;16.00;14.75;;;;;;;;5055149;28;51050;-48
2022/11/30 20:10:24;;;;;;;;;17.25;16.00;;;;;;;;5041039;28;51207;-51
2022/11/30 20:13:08;;;;;;;;;19.50;14.00;;;;;;;;5040812;28;51616;-49
2022/11/30 20:15:52;;;;;;;;;20.25;18.50;;;;;;;;5040717;28;51080;-49
2022/11/30 20:18:37;;;;;;;;;21.50;19.00;;;;;;;;5040984;28;51099;-48
2022/11/30 20:21:23;;;;;;;;;19.75;15.25;;;;;;;;5039860;28;51612;-48
2022/11/30 20:24:09;;;;;;;;;19.50;15.50;;;;;;;;5033842;28;51172;-49
2022/11/30 20:26:54;;;;;;;;;23.50;18.00;;;;;;;;5039501;28;51135;-51
2022/11/30 20:29:39;;;;;;;;;19.50;14.25;;;;;;;;5040498;28;51109;-51
2022/11/30 20:32:23;;;;;;;;;14.50;14.50;;;;;;;;5041313;28;51180;-49
2022/11/30 20:35:09;;;;;;;;;11.50;8.75;;;;;;;;5038770;28;51474;-51
2022/11/30 20:37:53;;;;;;;;;21.50;14.25;;;;;;;;5053621;28;51445;-50
2022/11/30 20:40:38;;;;;;;;;17.00;15.25;;;;;;;;5039947;28;51075;-50
2022/11/30 20:43:23;;;;;;;;;13.75;12.50;;;;;;;;5035841;28;51146;-48
2022/11/30 20:46:27;;;;;;;;;17.50;16.00;;;;;;;;5051634;28;51146;-49
2022/11/30 20:49:16;;;;;;;;;14.00;14.00;;;;;;;;5038987;28;51152;-50
2022/11/30 20:52:01;;;;;;;;;20.50;15.00;;;;;;;;5052956;28;51125;-49
2022/11/30 20:54:45;;;;;;;;;15.00;13.75;;;;;;;;5038634;28;51172;-48
2022/11/30 20:57:30;;;;;;;;;15.00;13.00;;;;;;;;5040704;28;51113;-46
2022/11/30 21:00:14;;;;;;;;;17.25;14.75;;;;;;;;5036061;28;51542;-49
2022/11/30 21:02:58;;;;;;;;;16.25;13.25;;;;;;;;5038469;28;51699;-48
2022/11/30 21:05:43;;;;;;;;;14.50;13.25;;;;;;;;5038715;28;51034;-49
2022/11/30 21:08:32;;;;;;;;;16.75;15.00;;;;;;;;5038136;28;51133;-48
2022/11/30 21:11:18;;;;;;;;;19.50;16.50;;;;;;;;5038895;28;51564;-48
2022/11/30 21:14:02;;;;;;;;;16.25;13.75;;;;;;;;5034881;28;51118;-47
2022/11/30 21:16:47;;;;;;;;;21.00;14.00;;;;;;;;5037453;28;51385;-49
2022/11/30 21:19:31;;;;;;;;;16.25;13.25;;;;;;;;5039082;28;51160;-49
2022/11/30 21:22:16;;;;;;;;;19.50;13.25;;;;;;;;5037147;28;51102;-51
2022/11/30 21:25:00;;;;;;;;;15.75;13.00;;;;;;;;5038940;28;51546;-50
2022/11/30 21:27:49;;;;;;;;;19.25;14.50;;;;;;;;5053064;28;51182;-52
2022/11/30 21:30:33;;;;;;;;;17.25;14.00;;;;;;;;5039259;28;51203;-48
2022/11/30 21:33:18;;;;;;;;;16.25;13.50;;;;;;;;5038827;28;51034;-52
2022/11/30 21:36:07;;;;;;;;;17.25;13.50;;;;;;;;5038868;28;51510;-50
2022/11/30 21:39:02;;;;;;;;;14.50;14.50;;;;;;;;5037809;28;51353;-51
2022/11/30 21:41:46;;;;;;;;;14.25;13.25;;;;;;;;5039443;28;51011;-51
2022/11/30 21:44:30;;;;;;;;;10.00;10.00;;;;;;;;5036306;28;51114;-48
2022/11/30 21:47:15;;;;;;;;;14.50;13.00;;;;;;;;5038059;28;51116;-50
2022/11/30 21:50:00;;;;;;;;;14.50;11.75;;;;;;;;5038740;28;51454;-51
2022/11/30 21:52:44;;;;;;;;;18.75;14.75;;;;;;;;5036075;28;51097;-50
2022/11/30 21:55:30;;;;;;;;;15.00;12.25;;;;;;;;5044444;28;51142;-50
2022/11/30 21:58:15;;;;;;;;;16.50;14.25;;;;;;;;5037561;28;51195;-50
2022/11/30 22:01:00;;;;;;;;;14.75;13.00;;;;;;;;5032731;28;51070;-49
2022/11/30 22:03:45;;;;;;;;;19.50;13.50;;;;;;;;5036626;28;51114;-51
2022/11/30 22:06:30;;;;;;;;;15.75;13.25;;;;;;;;5038611;28;51343;-49
2022/11/30 22:09:15;;;;;;;;;17.75;15.50;;;;;;;;5038863;28;51272;-50